Time;durP1;ratioP1;P1;durP2;ratioP2;P2;SDS_P1;SDS_P2;PMS_P1;PMS_P2;Temp;Humidity;BMP_temperature;BMP_pressure;BME280_temperature;BME280_humidity;BME280_pressure;Samples;Min_cycle;Max_cycle;Signal;HPM_P1;HPM_P2
2023/08/29 00:00:01;;;;;;;3.03;2.20;;;;;;;17.04;71.46;98596.09;7358354;39;20264;31
2023/08/29 00:05:38;;;;;;;2.40;2.20;;;;;;;16.93;70.96;98576.94;7338855;39;20343;31
2023/08/29 00:11:17;;;;;;;2.97;2.43;;;;;;;16.78;72.04;98582.72;7316962;39;20268;31
2023/08/29 00:21:55;;;;;;;2.78;2.10;;;;;;;16.81;70.76;98579.53;7314675;39;21084;31
2023/08/29 00:27:30;;;;;;;2.42;2.22;;;;;;;16.81;71.94;98578.69;7299440;39;20331;31
2023/08/29 00:32:50;;;;;;;5.05;2.30;;;;;;;16.86;70.82;98589.75;7279952;39;20246;31
2023/08/29 00:38:26;;;;;;;4.77;2.63;;;;;;;16.73;72.60;98598.03;7301060;39;20961;31
2023/08/29 00:44:01;;;;;;;2.55;2.15;;;;;;;16.69;71.44;98597.63;7341026;39;20376;31
2023/08/29 00:49:36;;;;;;;4.57;2.30;;;;;;;16.71;72.31;98605.59;7311222;39;20256;31
2023/08/29 00:55:13;;;;;;;3.30;2.80;;;;;;;16.66;72.76;98598.09;7354588;39;20774;31
2023/08/29 01:00:48;;;;;;;3.75;2.58;;;;;;;16.66;73.19;98590.75;7307887;39;20322;31
2023/08/29 01:06:08;;;;;;;5.50;2.57;;;;;;;16.68;72.41;98585.91;7319462;39;20244;31
2023/08/29 01:11:42;;;;;;;3.13;2.70;;;;;;;16.67;72.55;98586.16;7302208;39;20342;31
2023/08/29 01:17:17;;;;;;;3.80;2.80;;;;;;;16.65;72.83;98593.69;7334658;39;20281;31
2023/08/29 01:22:52;;;;;;;4.43;2.73;;;;;;;16.65;72.86;98597.25;7307464;39;20328;31
2023/08/29 01:28:28;;;;;;;4.57;2.87;;;;;;;16.53;74.39;98589.97;7307471;39;21228;31
2023/08/29 01:34:03;;;;;;;4.70;2.87;;;;;;;16.55;73.18;98596.03;7287355;39;20241;31
2023/08/29 01:39:38;;;;;;;4.30;2.80;;;;;;;16.66;73.54;98595.38;7287290;40;20260;31
2023/08/29 01:45:14;;;;;;;4.90;3.00;;;;;;;16.62;72.67;98592.25;7308901;39;20261;31
2023/08/29 01:50:49;;;;;;;5.43;3.10;;;;;;;16.64;73.62;98586.56;7263544;39;20276;31
2023/08/29 01:56:25;;;;;;;3.25;2.80;;;;;;;16.57;73.33;98588.50;7221536;40;20864;31
2023/08/29 02:07:09;;;;;;;2.95;2.65;;;;;;;16.50;73.21;98582.25;7270519;40;21109;31
2023/08/29 02:17:53;;;;;;;5.10;3.07;;;;;;;16.61;73.57;98563.38;7402532;39;20259;31
2023/08/29 02:23:27;;;;;;;4.70;3.10;;;;;;;16.64;73.43;98556.66;7301396;39;20240;31
2023/08/29 02:29:02;;;;;;;5.30;2.60;;;;;;;16.71;72.30;98557.44;7334828;39;20309;31
2023/08/29 02:34:24;;;;;;;5.43;2.97;;;;;;;16.77;72.84;98551.09;7262966;40;20245;31
2023/08/29 02:39:56;;;;;;;4.35;2.60;;;;;;;16.77;72.56;98540.22;7286529;39;20262;31
2023/08/29 02:45:31;;;;;;;3.20;2.60;;;;;;;16.83;72.77;98544.78;7269803;40;20259;31
2023/08/29 02:51:06;;;;;;;3.10;2.50;;;;;;;16.89;72.78;98546.63;7238532;40;20255;31
2023/08/29 02:56:43;;;;;;;6.00;3.20;;;;;;;16.81;72.80;98538.69;7248714;40;20282;31
2023/08/29 03:02:18;;;;;;;5.30;3.00;;;;;;;16.79;72.03;98538.09;7209345;40;20254;31
2023/08/29 03:07:55;;;;;;;4.00;2.90;;;;;;;16.81;72.82;98546.03;7250327;40;20254;31
2023/08/29 03:13:30;;;;;;;3.97;3.00;;;;;;;16.81;72.28;98546.88;7227936;40;20322;31
2023/08/29 03:19:06;;;;;;;3.52;2.90;;;;;;;16.79;72.98;98559.87;7215964;40;20258;31
2023/08/29 03:24:30;;;;;;;4.30;3.00;;;;;;;16.86;72.20;98566.09;7245192;40;20329;31
2023/08/29 03:35:11;;;;;;;7.20;3.20;;;;;;;16.85;72.90;98542.66;7292425;39;20540;31
2023/08/29 03:40:45;;;;;;;4.60;3.03;;;;;;;16.89;72.70;98549.34;7315701;39;20252;31
2023/08/29 03:46:22;;;;;;;6.10;3.20;;;;;;;16.86;72.95;98557.09;7319129;39;20245;31
2023/08/29 03:51:58;;;;;;;3.73;3.17;;;;;;;16.84;72.94;98554.63;7316693;39;20379;31
2023/08/29 03:57:34;;;;;;;4.83;3.33;;;;;;;16.88;72.62;98549.56;7301769;39;20247;31
2023/08/29 04:03:08;;;;;;;5.07;3.33;;;;;;;16.86;72.88;98544.31;7263438;40;20266;31
2023/08/29 04:13:48;;;;;;;5.20;3.20;;;;;;;16.80;73.70;98542.50;7345076;39;21390;31
2023/08/29 04:24:29;;;;;;;4.80;3.96;;;;;;;16.74;72.72;98532.50;7360549;39;21185;31
2023/08/29 04:30:05;;;;;;;4.25;3.75;;;;;;;16.70;73.19;98528.56;7278606;40;20261;31
2023/08/29 04:35:40;;;;;;;3.63;3.33;;;;;;;16.67;73.28;98534.44;7272242;39;20241;31
2023/08/29 04:41:01;;;;;;;5.20;4.20;;;;;;;16.68;72.83;98536.94;7261454;39;20277;31
2023/08/29 04:46:35;;;;;;;5.60;3.60;;;;;;;16.64;74.22;98532.16;7271092;39;20371;31
2023/08/29 04:56:59;;;;;;;4.80;4.30;;;;;;;16.67;74.12;98540.69;7323559;39;21272;31
2023/08/29 05:02:35;;;;;;;5.60;4.47;;;;;;;16.55;73.56;98537.00;7305539;39;20277;31
2023/08/29 05:08:15;;;;;;;6.13;4.40;;;;;;;16.52;74.50;98533.91;7297139;39;20357;31
2023/08/29 05:18:56;;;;;;;5.73;4.63;;;;;;;16.48;74.43;98529.94;7304623;39;21177;31
2023/08/29 05:24:20;;;;;;;6.75;5.30;;;;;;;16.52;74.45;98534.72;7273849;39;20793;31
2023/08/29 05:35:01;;;;;;;7.70;5.20;;;;;;;16.42;75.29;98537.09;7340005;39;20259;31
2023/08/29 05:40:22;;;;;;;6.67;6.00;;;;;;;16.41;75.60;98534.62;7308147;39;20264;31
2023/08/29 05:45:43;;;;;;;6.40;5.80;;;;;;;16.41;75.35;98529.97;7356331;39;20263;31
2023/08/29 05:56:24;;;;;;;5.90;5.30;;;;;;;16.38;75.66;98535.88;7404280;39;20281;31
2023/08/29 06:02:03;;;;;;;8.35;5.85;;;;;;;16.40;76.83;98539.22;7351383;39;20278;31
2023/08/29 06:07:38;;;;;;;7.55;5.70;;;;;;;16.39;76.78;98536.72;7122975;39;20434;31
2023/08/29 06:13:13;;;;;;;6.47;5.60;;;;;;;16.41;76.10;98538.16;7281177;39;20249;31
2023/08/29 06:18:49;;;;;;;7.30;5.70;;;;;;;16.49;75.46;98542.50;7179611;40;20253;31
2023/08/29 06:24:15;;;;;;;8.93;5.75;;;;;;;16.58;75.56;98550.22;7168271;40;21080;31
2023/08/29 06:29:51;;;;;;;7.23;5.30;;;;;;;16.52;75.31;98551.06;7256040;39;20305;31
2023/08/29 06:35:27;;;;;;;7.30;5.53;;;;;;;16.62;75.51;98553.31;7285167;40;20273;31
2023/08/29 06:41:10;;;;;;;6.60;5.40;;;;;;;16.68;75.74;98557.88;7323879;39;20374;31
2023/08/29 06:46:44;;;;;;;7.35;4.40;;;;;;;16.77;74.59;98559.25;7266700;39;20381;31
2023/08/29 06:57:09;;;;;;;7.82;4.85;;;;;;;16.87;75.04;98556.03;7297067;39;21010;31
2023/08/29 07:02:45;;;;;;;6.10;4.90;;;;;;;16.93;74.13;98557.88;7291730;39;20456;31
2023/08/29 07:08:06;;;;;;;5.32;4.10;;;;;;;17.08;74.23;98559.19;7285800;39;20241;31
2023/08/29 07:13:41;;;;;;;5.07;3.70;;;;;;;17.27;73.49;98562.78;7336507;39;20322;31
2023/08/29 07:24:21;;;;;;;3.30;3.00;;;;;;;17.44;73.16;98573.94;7374194;39;20258;31
2023/08/29 07:29:41;;;;;;;5.10;3.63;;;;;;;17.44;72.59;98585.66;7350576;39;20250;31
2023/08/29 07:35:16;;;;;;;4.80;3.60;;;;;;;17.50;72.55;98587.50;7415481;39;20235;31
2023/08/29 07:40:50;;;;;;;6.00;3.10;;;;;;;17.59;72.80;98598.97;7359495;39;20259;31
2023/08/29 07:46:25;;;;;;;6.90;4.00;;;;;;;17.70;72.36;98611.81;7348409;39;20400;31
2023/08/29 07:51:45;;;;;;;5.04;3.56;;;;;;;17.80;71.75;98612.16;7320182;39;20311;31
2023/08/29 07:57:22;;;;;;;4.80;3.80;;;;;;;17.87;71.61;98607.44;7326734;39;20262;31
2023/08/29 08:08:22;;;;;;;6.03;3.20;;;;;;;18.17;71.59;98609.38;7293771;39;21176;31
2023/08/29 08:13:57;;;;;;;4.55;3.05;;;;;;;18.25;71.14;98614.53;7325510;39;20266;31
2023/08/29 08:24:21;;;;;;;4.50;3.40;;;;;;;18.32;69.49;98621.56;7339643;39;21222;31
2023/08/29 08:29:57;;;;;;;4.37;2.87;;;;;;;18.56;70.30;98613.50;7303072;39;20368;31
2023/08/29 08:40:22;;;;;;;4.27;2.80;;;;;;;18.85;69.23;98626.28;7420627;39;20262;31
2023/08/29 08:51:01;;;;;;;4.33;2.50;;;;;;;19.11;67.14;98628.59;7386910;39;21178;31
2023/08/29 09:01:40;;;;;;;4.27;2.60;;;;;;;19.33;65.21;98628.84;7342280;39;20684;31
2023/08/29 09:12:21;;;;;;;4.23;2.47;;;;;;;19.53;65.12;98634.81;7323009;39;20282;31
2023/08/29 09:18:13;;;;;;;;;;;;;;;;;;;;;
2023/08/29 09:23:39;;;;;;;2.90;2.40;;;;;;;19.62;64.50;98627.94;7335125;39;20358;31
2023/08/29 09:29:16;;;;;;;4.37;2.43;;;;;;;19.52;66.82;98633.19;7321195;39;20351;31
2023/08/29 09:34:51;;;;;;;3.13;2.40;;;;;;;19.60;66.22;98635.56;7319298;39;20279;31
2023/08/29 09:40:26;;;;;;;3.50;2.70;;;;;;;19.65;64.93;98638.41;7291909;39;20263;31
2023/08/29 09:46:04;;;;;;;3.98;2.38;;;;;;;19.77;66.36;98631.03;7258501;40;20242;31
2023/08/29 09:51:39;;;;;;;2.90;2.10;;;;;;;19.91;66.48;98633.50;7248026;40;20272;31
2023/08/29 09:57:15;;;;;;;3.50;2.10;;;;;;;20.02;64.84;98622.53;7229601;40;20246;31
2023/08/29 10:02:52;;;;;;;3.20;1.80;;;;;;;20.01;64.33;98614.59;7289151;39;20360;31
2023/08/29 10:13:36;;;;;;;3.25;1.70;;;;;;;19.88;64.06;98609.38;7305713;39;20284;31
2023/08/29 10:19:18;;;;;;;2.20;1.70;;;;;;;19.96;63.98;98619.94;7218858;40;20253;31
2023/08/29 10:30:18;;;;;;;3.00;1.80;;;;;;;20.34;63.60;98609.25;7357341;39;20267;31
2023/08/29 10:35:55;;;;;;;6.20;2.20;;;;;;;20.44;63.88;98611.38;7350623;39;20275;31
2023/08/29 10:41:33;;;;;;;3.10;2.00;;;;;;;20.30;63.94;98607.25;7329768;39;20240;31
2023/08/29 10:47:31;;;;;;;;;;;;;;;;;;;;;
2023/08/29 10:52:58;;;;;;;4.43;2.30;;;;;;;20.00;65.95;98615.66;7200421;40;20344;31
2023/08/29 10:58:45;;;;;;;5.50;2.80;;;;;;;19.80;68.00;98603.19;7235079;40;20312;31
2023/08/29 11:04:26;;;;;;;4.80;2.90;;;;;;;19.72;70.86;98606.28;7225923;40;20313;31
2023/08/29 11:10:02;;;;;;;6.37;2.77;;;;;;;19.67;71.33;98611.66;7266434;40;20245;31
2023/08/29 11:15:23;;;;;;;5.53;3.03;;;;;;;19.66;71.61;98601.78;7249916;40;20241;31
2023/08/29 11:20:46;;;;;;;4.73;2.87;;;;;;;19.64;72.46;98608.56;7297383;39;20323;31
2023/08/29 11:26:24;;;;;;;3.70;2.33;;;;;;;19.47;72.96;98610.34;7356322;39;20283;31
2023/08/29 11:32:00;;;;;;;3.00;2.40;;;;;;;19.43;73.04;98606.41;7261822;40;20277;31
2023/08/29 11:37:36;;;;;;;3.27;2.40;;;;;;;19.39;73.42;98600.59;7288255;39;20367;31
2023/08/29 11:43:15;;;;;;;4.12;2.65;;;;;;;19.29;72.63;98619.47;7248287;40;20257;31
2023/08/29 11:48:50;;;;;;;3.43;2.57;;;;;;;19.13;73.60;98607.31;7280235;39;20256;31
2023/08/29 11:54:53;;;;;;;2.70;2.50;;;;;;;19.15;75.65;98612.56;7268549;40;20508;31
2023/08/29 12:00:30;;;;;;;3.47;2.70;;;;;;;19.24;73.45;98606.53;7219807;40;21195;31
2023/08/29 12:06:05;;;;;;;4.60;2.20;;;;;;;19.40;74.74;98596.75;7204267;40;20379;31
2023/08/29 12:11:40;;;;;;;3.05;2.55;;;;;;;19.55;73.66;98599.91;7239052;39;20252;31
2023/08/29 12:17:14;;;;;;;4.85;2.95;;;;;;;19.61;72.51;98601.69;7317058;39;20244;31
2023/08/29 12:22:36;;;;;;;4.30;2.70;;;;;;;19.71;72.02;98604.63;7308233;39;20371;31
2023/08/29 12:28:12;;;;;;;3.10;2.20;;;;;;;19.63;72.75;98595.94;7296060;39;20255;31
2023/08/29 12:33:45;;;;;;;2.30;1.90;;;;;;;19.77;70.27;98589.16;7253518;40;20284;31
2023/08/29 12:39:20;;;;;;;2.50;1.90;;;;;;;19.82;69.26;98591.19;7230931;40;20273;31
2023/08/29 12:44:55;;;;;;;4.60;2.17;;;;;;;19.92;69.74;98584.00;7216835;40;20261;31
2023/08/29 12:50:29;;;;;;;3.47;2.07;;;;;;;19.92;70.10;98577.72;7238139;40;20261;31
2023/08/29 12:55:59;;;;;;;3.40;1.90;;;;;;;19.92;69.30;98583.19;7062529;40;20295;31
2023/08/29 13:01:32;;;;;;;2.20;1.90;;;;;;;19.75;69.34;98583.94;7273338;40;20268;31
2023/08/29 13:12:16;;;;;;;3.30;1.80;;;;;;;19.81;69.72;98590.34;7270432;39;21183;31
2023/08/29 13:17:36;;;;;;;5.40;1.90;;;;;;;19.83;68.68;98590.94;7322597;39;20294;31
2023/08/29 13:22:56;;;;;;;2.67;1.80;;;;;;;19.76;69.39;98582.84;7311677;39;20247;31
2023/08/29 13:33:37;;;;;;;4.80;1.80;;;;;;;19.88;67.29;98582.81;7305972;39;21215;31
2023/08/29 13:39:28;;;;;;;2.10;1.90;;;;;;;19.93;69.20;98577.47;7297788;39;20263;31
2023/08/29 13:44:35;;;;;;;3.13;2.17;;;;;;;20.02;69.42;98575.19;7345624;39;20260;31
2023/08/29 13:50:12;;;;;;;3.90;1.90;;;;;;;20.02;68.66;98575.19;7323387;39;20244;31
2023/08/29 13:55:47;;;;;;;3.77;1.80;;;;;;;20.03;69.52;98563.16;7285732;40;20356;31
2023/08/29 14:01:38;;;;;;;;;;;;;;;;;;;;;
2023/08/29 14:07:05;;;;;;;3.47;2.07;;;;;;;19.94;68.55;98565.47;7256481;40;20249;31
2023/08/29 14:12:52;;;;;;;;;;;;;;;;;;;;;
2023/08/29 14:18:19;;;;;;;2.55;1.70;;;;;;;20.04;68.81;98568.41;7220790;40;20246;31
2023/08/29 14:23:56;;;;;;;2.30;1.60;;;;;;;20.32;68.74;98572.25;7234092;40;20451;31
2023/08/29 14:29:31;;;;;;;3.20;1.90;;;;;;;20.51;67.48;98577.28;7330711;39;20277;31
2023/08/29 14:35:21;;;;;;;;;;;;;;;;;;;;;
2023/08/29 14:45:57;;;;;;;1.90;1.50;;;;;;;20.74;65.24;98565.38;7256469;40;20283;31
2023/08/29 14:51:31;;;;;;;2.85;1.62;;;;;;;21.02;62.74;98558.97;7329923;39;20321;31
2023/08/29 14:57:06;;;;;;;1.50;1.40;;;;;;;21.18;62.07;98549.97;7381331;39;20400;31
2023/08/29 15:02:43;;;;;;;1.80;1.47;;;;;;;21.26;61.65;98551.44;7308345;39;20252;31
2023/08/29 15:08:04;;;;;;;3.37;1.40;;;;;;;21.18;61.91;98558.19;7221903;40;20246;31
2023/08/29 15:19:10;;;;;;;4.15;3.62;;;;;;;20.80;62.83;98558.09;7256224;40;20358;31
2023/08/29 15:29:41;;;;;;;2.22;1.75;;;;;;;20.63;62.90;98564.34;7323247;39;20272;31
2023/08/29 15:40:21;;;;;;;4.07;2.10;;;;;;;20.48;64.07;98558.63;7359498;39;21089;31
2023/08/29 15:45:59;;;;;;;21.45;2.40;;;;;;;20.52;64.43;98568.00;7300419;39;20255;31
2023/08/29 15:51:24;;;;;;;44.70;3.50;;;;;;;20.37;64.11;98583.28;7329007;39;20343;31
2023/08/29 15:56:55;;;;;;;2.23;1.73;;;;;;;20.20;64.42;98583.22;7303462;39;20244;31
2023/08/29 16:02:15;;;;;;;2.10;1.60;;;;;;;20.23;63.23;98580.81;7261153;40;20276;31
2023/08/29 16:07:51;;;;;;;2.37;1.70;;;;;;;20.27;64.28;98594.03;7245891;40;20252;31
2023/08/29 16:13:26;;;;;;;2.40;1.80;;;;;;;20.24;64.39;98589.84;7244665;40;20277;31
2023/08/29 16:19:01;;;;;;;2.00;1.65;;;;;;;20.32;63.60;98583.19;7249334;40;20328;31
2023/08/29 16:24:37;;;;;;;2.10;1.70;;;;;;;20.28;64.34;98588.28;7291586;40;20360;31
2023/08/29 16:30:11;;;;;;;1.80;1.50;;;;;;;20.31;65.28;98592.50;7271620;39;20260;31
2023/08/29 16:35:32;;;;;;;2.10;1.80;;;;;;;20.34;65.91;98598.31;7278925;40;20305;31
2023/08/29 16:41:05;;;;;;;2.30;2.10;;;;;;;20.21;66.57;98598.56;7303544;39;20251;31
2023/08/29 16:46:36;;;;;;;2.60;2.20;;;;;;;20.03;68.29;98594.09;7238115;40;20259;31
2023/08/29 16:52:15;;;;;;;6.20;3.00;;;;;;;19.95;68.35;98590.91;7276826;39;20403;31
2023/08/29 16:57:36;;;;;;;4.40;3.87;;;;;;;19.89;68.43;98594.59;7260621;40;20252;31
2023/08/29 17:03:09;;;;;;;2.67;2.25;;;;;;;19.83;68.46;98598.31;7263657;40;20264;31
2023/08/29 17:08:49;;;;;;;2.65;2.15;;;;;;;19.65;68.87;98602.88;7214658;39;20257;31
2023/08/29 17:14:11;;;;;;;2.60;1.80;;;;;;;19.54;69.29;98611.88;7248821;40;20319;31
2023/08/29 17:19:47;;;;;;;2.50;1.95;;;;;;;19.28;70.01;98613.16;7284816;39;20276;31
2023/08/29 17:25:20;;;;;;;2.30;2.10;;;;;;;19.37;71.07;98608.19;7291700;39;20241;31
2023/08/29 17:30:55;;;;;;;3.00;1.80;;;;;;;19.42;71.03;98597.38;7268026;40;20249;31
2023/08/29 17:36:34;;;;;;;4.30;2.10;;;;;;;19.29;71.76;98584.78;7274532;39;20257;31
2023/08/29 17:42:09;;;;;;;2.30;2.00;;;;;;;19.03;74.07;98598.91;7256993;39;20470;31
2023/08/29 17:47:30;;;;;;;3.22;2.10;;;;;;;18.96;73.44;98605.50;7268676;39;20368;31
2023/08/29 17:53:05;;;;;;;2.00;1.80;;;;;;;18.78;72.83;98631.03;7229543;40;20272;31
2023/08/29 18:03:44;;;;;;;5.50;2.27;;;;;;;17.83;74.30;98624.47;7367621;39;20263;31
2023/08/29 18:14:25;;;;;;;3.83;2.10;;;;;;;17.71;75.30;98629.84;7356379;39;21262;31
2023/08/29 18:19:45;;;;;;;2.80;2.20;;;;;;;17.83;74.91;98622.59;7385012;39;20274;31
2023/08/29 18:30:28;;;;;;;5.23;2.37;;;;;;;17.92;74.84;98620.38;7361687;39;20363;31
2023/08/29 18:35:49;;;;;;;2.90;2.20;;;;;;;17.95;74.27;98617.19;7388156;39;20235;31
2023/08/29 18:41:24;;;;;;;4.03;2.43;;;;;;;17.82;74.84;98620.91;7362634;39;20367;31
2023/08/29 18:47:00;;;;;;;4.60;2.40;;;;;;;17.57;75.77;98615.50;7323715;39;20293;31
2023/08/29 18:52:36;;;;;;;3.37;2.20;;;;;;;17.42;76.27;98628.63;7223081;40;20273;31
2023/08/29 19:03:16;;;;;;;3.32;2.50;;;;;;;17.43;76.46;98637.66;7282711;39;21077;31
2023/08/29 19:08:50;;;;;;;4.18;2.33;;;;;;;17.38;76.76;98642.94;7297905;39;20245;31
2023/08/29 19:14:10;;;;;;;2.60;2.16;;;;;;;17.32;76.32;98641.97;7344279;39;20422;31
2023/08/29 19:19:47;;;;;;;2.10;1.90;;;;;;;17.34;75.76;98634.38;7303196;39;20244;31
2023/08/29 19:25:22;;;;;;;3.30;2.20;;;;;;;17.21;76.70;98639.09;7261025;40;20265;31
2023/08/29 19:30:57;;;;;;;2.45;2.00;;;;;;;17.34;76.76;98625.38;7270593;40;20242;31
2023/08/29 19:36:37;;;;;;;2.20;1.73;;;;;;;17.41;76.65;98629.72;7269085;40;20351;31
2023/08/29 19:41:58;;;;;;;2.83;2.00;;;;;;;17.44;76.20;98633.88;7187526;40;20776;31
2023/08/29 19:47:18;;;;;;;2.00;1.80;;;;;;;17.38;75.85;98626.59;7256100;40;20870;31
2023/08/29 19:52:49;;;;;;;2.50;1.80;;;;;;;17.36;76.37;98626.81;7058678;40;20347;31
2023/08/29 19:58:24;;;;;;;3.33;1.77;;;;;;;17.27;76.14;98636.34;7321885;39;20908;31
2023/08/29 20:03:44;;;;;;;2.50;2.30;;;;;;;17.32;76.13;98624.78;7293414;39;20624;31
2023/08/29 20:09:20;;;;;;;3.40;2.10;;;;;;;17.37;75.95;98623.06;7327519;39;20356;31
2023/08/29 20:14:40;;;;;;;2.30;1.90;;;;;;;17.41;76.36;98629.72;7308097;39;20406;31
2023/08/29 20:20:16;;;;;;;2.10;1.90;;;;;;;17.43;76.48;98629.47;7343089;39;20573;31
2023/08/29 20:25:52;;;;;;;2.60;2.00;;;;;;;17.33;77.20;98629.19;7319906;39;20515;31
2023/08/29 20:31:12;;;;;;;2.60;2.10;;;;;;;17.05;77.12;98630.44;7270339;39;20245;31
2023/08/29 20:36:32;;;;;;;2.60;2.30;;;;;;;17.05;77.86;98635.91;7287343;39;20251;31
2023/08/29 20:42:09;;;;;;;2.40;2.20;;;;;;;17.08;78.08;98632.72;7319427;39;20251;31
2023/08/29 20:47:32;;;;;;;2.70;1.97;;;;;;;17.14;77.43;98636.47;7290245;40;20245;31
2023/08/29 20:53:17;;;;;;;;;;;;;;;;;;;;;
2023/08/29 20:58:45;;;;;;;4.00;2.57;;;;;;;16.81;77.96;98633.12;7254667;40;20265;31
2023/08/29 21:04:07;;;;;;;5.83;2.40;;;;;;;16.76;78.32;98624.81;7262421;40;20253;31
2023/08/29 21:09:43;;;;;;;3.65;2.70;;;;;;;16.74;78.97;98627.75;7266040;40;20709;31
2023/08/29 21:15:20;;;;;;;4.00;2.90;;;;;;;16.78;79.62;98618.09;7298700;40;20347;31
2023/08/29 21:21:02;;;;;;;3.37;2.43;;;;;;;16.75;78.99;98618.53;7255817;40;20252;31
2023/08/29 21:26:36;;;;;;;3.45;2.75;;;;;;;16.78;78.80;98607.19;7279383;40;20322;31
2023/08/29 21:32:15;;;;;;;3.60;2.60;;;;;;;16.72;80.09;98608.06;7238117;40;20377;31
2023/08/29 21:37:55;;;;;;;2.90;2.60;;;;;;;16.70;80.70;98604.75;7178565;40;20279;31
2023/08/29 21:48:36;;;;;;;8.00;2.50;;;;;;;16.67;79.75;98583.44;7269760;39;20272;31
2023/08/29 21:54:08;;;;;;;3.50;2.35;;;;;;;16.74;79.40;98586.09;7284297;39;20236;31
2023/08/29 21:59:28;;;;;;;4.20;2.50;;;;;;;16.81;80.06;98567.81;7310725;39;20266;31
2023/08/29 22:05:07;;;;;;;3.20;2.33;;;;;;;16.88;79.98;98547.66;7300642;40;20244;31
2023/08/29 22:10:27;;;;;;;2.60;2.20;;;;;;;16.97;80.52;98551.78;7254980;40;20256;31
2023/08/29 22:15:50;;;;;;;5.20;2.90;;;;;;;16.99;80.04;98549.66;7286286;39;20279;31
2023/08/29 22:21:24;;;;;;;4.25;2.30;;;;;;;16.86;81.05;98551.66;7260678;40;20802;31
2023/08/29 22:27:00;;;;;;;2.90;2.70;;;;;;;16.73;81.36;98547.16;7274610;39;20333;31
2023/08/29 22:32:21;;;;;;;4.30;2.70;;;;;;;16.72;81.15;98547.41;7279648;40;20804;31
2023/08/29 22:38:00;;;;;;;2.95;2.75;;;;;;;16.75;81.05;98553.22;7312666;39;20312;31
2023/08/29 22:43:24;;;;;;;5.63;3.10;;;;;;;16.73;81.43;98549.03;7319733;39;20240;31
2023/08/29 22:48:42;;;;;;;4.20;3.20;;;;;;;16.68;81.60;98544.25;7340394;39;20664;31
2023/08/29 22:54:20;;;;;;;4.50;3.10;;;;;;;16.66;81.49;98538.22;7317746;39;20642;31
2023/08/29 22:59:41;;;;;;;4.83;3.30;;;;;;;16.69;81.13;98535.03;7258463;40;20732;31
2023/08/29 23:05:15;;;;;;;5.40;3.50;;;;;;;16.68;80.97;98527.94;7266012;40;20448;31
2023/08/29 23:10:51;;;;;;;3.57;3.20;;;;;;;16.71;81.37;98524.78;7286399;40;20237;31
2023/08/29 23:16:25;;;;;;;4.23;3.57;;;;;;;16.74;81.62;98524.31;7286400;39;20254;31
2023/08/29 23:21:59;;;;;;;5.10;3.90;;;;;;;16.68;81.40;98514.31;7241888;40;20255;31
2023/08/29 23:27:35;;;;;;;4.20;3.70;;;;;;;16.61;82.38;98524.44;7258021;40;20245;31
2023/08/29 23:32:56;;;;;;;5.30;3.80;;;;;;;16.63;81.78;98516.88;7229512;40;20248;31
2023/08/29 23:43:31;;;;;;;3.90;3.50;;;;;;;16.68;81.96;98522.50;7253966;40;20989;31
2023/08/29 23:49:07;;;;;;;6.25;4.10;;;;;;;16.69;81.95;98516.00;7317183;39;20334;31
2023/08/29 23:54:39;;;;;;;5.70;4.40;;;;;;;16.75;82.83;98520.56;7286214;40;20246;31
